createdAt,value
2022-12-25T00:01:21.764Z,100418.50
2022-12-25T00:03:50.657Z,100422.81
2022-12-25T00:06:19.323Z,100411.84
2022-12-25T00:08:48.105Z,100404.03
2022-12-25T00:11:20.284Z,100408.47
2022-12-25T00:13:49.198Z,100427.25
2022-12-25T00:16:26.516Z,100430.06
2022-12-25T00:18:58.964Z,100424.06
2022-12-25T00:21:27.937Z,100422.41
2022-12-25T00:23:58.089Z,100416.56
2022-12-25T00:26:28.020Z,100408.06
2022-12-25T00:29:00.001Z,100401.94
2022-12-25T00:31:29.046Z,100402.06
2022-12-25T00:33:57.592Z,100398.47
2022-12-25T00:36:26.055Z,100402.22
2022-12-25T00:38:54.639Z,100399.03
2022-12-25T00:41:38.870Z,100402.63
2022-12-25T00:44:09.024Z,100405.53
2022-12-25T00:46:37.904Z,100403.19
2022-12-25T00:49:06.469Z,100399.13
2022-12-25T00:51:35.116Z,100405.53
2022-12-25T00:54:03.685Z,100414.41
2022-12-25T00:56:32.177Z,100405.81
2022-12-25T00:59:00.355Z,100409.28
2022-12-25T01:01:28.665Z,100409.41
2022-12-25T01:03:57.234Z,100407.03
2022-12-25T01:06:25.811Z,100407.75
2022-12-25T01:09:11.700Z,100413.72
2022-12-25T01:11:40.249Z,100418.16
2022-12-25T01:14:09.730Z,100425.81
2022-12-25T01:16:38.048Z,100420.69
2022-12-25T01:19:06.614Z,100426.94
2022-12-25T01:21:35.058Z,100431.81
2022-12-25T01:24:03.562Z,100446.25
2022-12-25T01:26:32.129Z,100447.34
2022-12-25T01:29:00.716Z,100450.00
2022-12-25T01:31:29.306Z,100456.25
2022-12-25T01:33:57.459Z,100447.06
2022-12-25T01:36:27.295Z,100447.75
2022-12-25T01:38:55.891Z,100452.06
2022-12-25T01:41:26.352Z,100462.47
2022-12-25T01:44:06.234Z,100458.31
2022-12-25T01:46:37.193Z,100456.06
2022-12-25T01:49:12.646Z,100457.75
2022-12-25T01:51:51.467Z,100457.47
2022-12-25T01:54:26.488Z,100469.25
2022-12-25T01:56:57.797Z,100458.84
2022-12-25T01:59:28.084Z,100465.25
2022-12-25T02:01:57.024Z,100462.88
2022-12-25T02:04:39.656Z,100465.44
2022-12-25T02:07:25.224Z,100468.50
2022-12-25T02:09:54.600Z,100463.50
2022-12-25T02:12:35.412Z,100454.31
2022-12-25T02:15:09.887Z,100463.56
2022-12-25T02:17:59.995Z,100461.91
2022-12-25T02:21:18.642Z,100459.50
2022-12-25T02:24:23.673Z,100465.63
2022-12-25T02:27:06.106Z,100464.66
2022-12-25T02:30:06.512Z,100456.06
2022-12-25T02:33:18.073Z,100454.63
2022-12-25T02:35:54.867Z,100454.50
2022-12-25T02:38:34.714Z,100460.59
2022-12-25T02:41:11.174Z,100457.00
2022-12-25T02:44:00.952Z,100447.16
2022-12-25T02:46:48.757Z,100443.75
2022-12-25T02:49:42.338Z,100446.53
2022-12-25T02:52:38.605Z,100432.22
2022-12-25T02:55:40.244Z,100438.81
2022-12-25T02:58:34.268Z,100439.34
2022-12-25T03:01:42.421Z,100453.38
2022-12-25T03:04:32.855Z,100451.47
2022-12-25T03:07:10.902Z,100462.03
2022-12-25T03:10:12.113Z,100464.25
2022-12-25T03:12:55.649Z,100465.66
2022-12-25T03:15:42.096Z,100467.19
2022-12-25T03:18:15.857Z,100451.19
2022-12-25T03:21:01.845Z,100457.13
2022-12-25T03:23:52.473Z,100455.88
2022-12-25T03:26:38.975Z,100465.59
2022-12-25T03:29:07.479Z,100464.47
2022-12-25T03:31:53.933Z,100463.78
2022-12-25T03:35:06.566Z,100470.72
2022-12-25T03:38:16.087Z,100465.59
2022-12-25T03:41:31.503Z,100478.78
2022-12-25T03:44:57.875Z,100474.88
2022-12-25T03:48:01.595Z,100479.44
2022-12-25T03:50:57.552Z,100480.16
2022-12-25T03:53:56.656Z,100483.50
2022-12-25T03:56:42.728Z,100486.53
2022-12-25T03:59:28.435Z,100486.53
2022-12-25T04:02:14.386Z,100477.06
2022-12-25T04:05:00.463Z,100467.34
2022-12-25T04:07:46.502Z,100465.28
2022-12-25T04:10:32.404Z,100460.69
2022-12-25T04:13:18.307Z,100463.34
2022-12-25T04:16:06.870Z,100468.75
2022-12-25T04:18:52.635Z,100476.81
2022-12-25T04:21:38.562Z,100469.16
2022-12-25T04:24:24.868Z,100475.53
2022-12-25T04:27:10.687Z,100478.28
2022-12-25T04:29:56.603Z,100484.28
2022-12-25T04:32:42.437Z,100486.94
2022-12-25T04:35:28.783Z,100485.97
2022-12-25T04:37:59.731Z,100481.66
2022-12-25T04:40:30.692Z,100500.25
2022-12-25T04:42:59.229Z,100513.44
2022-12-25T04:45:27.671Z,100504.56
2022-12-25T04:47:56.149Z,100509.16
2022-12-25T04:50:24.618Z,100506.38
2022-12-25T04:52:53.350Z,100499.97
2022-12-25T04:55:21.882Z,100490.16
2022-12-25T04:57:50.375Z,100485.72
2022-12-25T05:00:19.275Z,100490.00
2022-12-25T05:02:47.909Z,100485.56
2022-12-25T05:05:16.549Z,100471.53
2022-12-25T05:07:45.126Z,100479.19
2022-12-25T05:10:13.581Z,100485.19
2022-12-25T05:12:42.131Z,100484.19
2022-12-25T05:15:11.226Z,100471.00
2022-12-25T05:17:39.638Z,100466.56
2022-12-25T05:20:08.852Z,100473.25
2022-12-25T05:22:37.290Z,100470.59
2022-12-25T05:25:05.751Z,100463.53
2022-12-25T05:27:34.194Z,100458.25
2022-12-25T05:30:02.683Z,100446.84
2022-12-25T05:32:31.223Z,100447.53
2022-12-25T05:35:00.452Z,100448.53
2022-12-25T05:37:28.929Z,100440.47
2022-12-25T05:39:57.435Z,100432.41
2022-12-25T05:42:25.969Z,100436.59
2022-12-25T05:44:54.511Z,100437.28
2022-12-25T05:47:23.115Z,100445.09
2022-12-25T05:49:51.533Z,100452.72
2022-12-25T05:52:19.962Z,100450.38
2022-12-25T05:54:48.572Z,100450.81
2022-12-25T05:57:16.945Z,100442.63
2022-12-25T05:59:45.373Z,100438.63
2022-12-25T06:02:13.830Z,100434.47
2022-12-25T06:04:42.426Z,100420.00
2022-12-25T06:07:10.835Z,100426.00
2022-12-25T06:09:39.364Z,100437.25
2022-12-25T06:12:07.896Z,100429.19
2022-12-25T06:14:36.748Z,100437.94
2022-12-25T06:17:05.455Z,100441.41
2022-12-25T06:19:33.909Z,100437.81
2022-12-25T06:22:02.452Z,100440.47
2022-12-25T06:24:30.982Z,100439.50
2022-12-25T06:26:59.400Z,100432.41
2022-12-25T06:29:27.862Z,100433.09
2022-12-25T06:31:57.388Z,100439.91
2022-12-25T06:34:26.010Z,100438.22
2022-12-25T06:36:54.794Z,100445.91
2022-12-25T06:39:25.449Z,100442.28
2022-12-25T06:41:53.887Z,100448.28
2022-12-25T06:44:21.898Z,100447.28
2022-12-25T06:46:50.388Z,100450.06
2022-12-25T06:49:18.870Z,100450.91
2022-12-25T06:51:47.934Z,100450.19
2022-12-25T06:54:16.119Z,100449.63
2022-12-25T06:56:44.567Z,100458.41
2022-12-25T06:59:13.280Z,100453.28
2022-12-25T07:01:56.146Z,100447.16
2022-12-25T07:04:38.088Z,100440.06
2022-12-25T07:07:09.333Z,100449.34
2022-12-25T07:09:39.141Z,100451.72
2022-12-25T07:12:23.515Z,100455.66
2022-12-25T07:14:52.269Z,100466.63
2022-12-25T07:17:21.676Z,100468.72
2022-12-25T07:19:50.366Z,100464.75
2022-12-25T07:22:18.852Z,100464.31
2022-12-25T07:24:47.285Z,100469.19
2022-12-25T07:27:15.699Z,100473.25
2022-12-25T07:29:44.085Z,100459.72
2022-12-25T07:32:12.312Z,100461.09
2022-12-25T07:34:40.885Z,100466.38
2022-12-25T07:37:09.400Z,100473.25
2022-12-25T07:39:37.834Z,100469.88
2022-12-25T07:42:06.396Z,100460.81
2022-12-25T07:44:34.926Z,100463.91
2022-12-25T07:47:03.392Z,100460.84
2022-12-25T07:49:31.927Z,100455.28
2022-12-25T07:52:00.381Z,100452.19
2022-12-25T07:54:28.924Z,100445.50
2022-12-25T07:56:57.334Z,100450.09
2022-12-25T07:59:25.861Z,100459.13
2022-12-25T08:01:54.396Z,100453.94
2022-12-25T08:04:22.979Z,100449.06
2022-12-25T08:06:51.072Z,100449.16
2022-12-25T08:09:19.499Z,100454.72
2022-12-25T08:11:48.857Z,100444.97
2022-12-25T08:14:17.457Z,100446.63
2022-12-25T08:16:47.016Z,100437.41
2022-12-25T08:19:15.672Z,100441.56
2022-12-25T08:21:44.400Z,100438.34
2022-12-25T08:24:12.914Z,100444.84
2022-12-25T08:26:41.455Z,100433.69
2022-12-25T08:29:09.984Z,100435.59
2022-12-25T08:31:44.062Z,100428.72
2022-12-25T08:34:14.723Z,100416.69
2022-12-25T08:36:42.864Z,100417.94
2022-12-25T08:39:11.661Z,100425.00
2022-12-25T08:41:40.332Z,100425.91
2022-12-25T08:44:08.788Z,100416.38
2022-12-25T08:46:37.321Z,100415.63
2022-12-25T08:49:05.813Z,100435.25
2022-12-25T08:51:34.336Z,100425.56
2022-12-25T08:54:02.836Z,100429.94
2022-12-25T08:56:31.319Z,100421.06
2022-12-25T08:58:59.475Z,100414.03
2022-12-25T09:01:27.639Z,100410.88
2022-12-25T09:03:56.251Z,100411.53
2022-12-25T09:06:24.745Z,100411.44
2022-12-25T09:08:53.155Z,100399.19
2022-12-25T09:11:22.724Z,100397.56
2022-12-25T09:13:51.215Z,100398.47
2022-12-25T09:16:23.424Z,100389.03
2022-12-25T09:18:52.009Z,100386.72
2022-12-25T09:21:20.732Z,100389.94
2022-12-25T09:23:49.418Z,100397.94
2022-12-25T09:26:19.635Z,100388.50
2022-12-25T09:28:51.811Z,100382.88
2022-12-25T09:31:22.872Z,100383.41
2022-12-25T09:33:54.597Z,100387.56
2022-12-25T09:36:25.227Z,100375.75
2022-12-25T09:38:53.908Z,100378.75
2022-12-25T09:42:00.105Z,100386.56
2022-12-25T09:44:41.125Z,100384.72
2022-12-25T09:47:15.615Z,100389.38
2022-12-25T09:50:11.116Z,100398.13
2022-12-25T09:52:58.580Z,100393.47
2022-12-25T09:55:31.660Z,100396.50
2022-12-25T09:58:02.998Z,100388.50
2022-12-25T10:00:38.844Z,100383.72
2022-12-25T10:03:50.402Z,100390.03
2022-12-25T10:06:24.048Z,100389.25
2022-12-25T10:09:14.042Z,100393.59
2022-12-25T10:12:23.836Z,100369.88
2022-12-25T10:15:41.807Z,100362.91
2022-12-25T10:18:56.220Z,100369.72
2022-12-25T10:21:25.132Z,100369.88
2022-12-25T10:24:34.824Z,100357.63
2022-12-25T10:27:16.377Z,100348.63
2022-12-25T10:29:46.645Z,100345.50
2022-12-25T10:32:15.406Z,100345.34
2022-12-25T10:34:43.870Z,100345.81
2022-12-25T10:37:13.717Z,100336.84
2022-12-25T10:39:46.596Z,100331.88
2022-12-25T10:42:37.314Z,100329.88
2022-12-25T10:45:10.142Z,100315.25
2022-12-25T10:47:42.936Z,100324.53
2022-12-25T10:50:21.854Z,100331.38
2022-12-25T10:53:14.541Z,100315.56
2022-12-25T10:55:43.188Z,100312.38
2022-12-25T10:58:22.690Z,100310.06
2022-12-25T11:00:58.408Z,100307.59
2022-12-25T11:03:31.678Z,100302.91
2022-12-25T11:06:02.888Z,100302.91
2022-12-25T11:08:34.884Z,100284.44
2022-12-25T11:11:07.129Z,100278.75
2022-12-25T11:13:41.739Z,100276.09
2022-12-25T11:16:36.694Z,100267.13
2022-12-25T11:19:24.718Z,100267.09
2022-12-25T11:21:56.411Z,100256.63
2022-12-25T11:24:29.892Z,100248.78
2022-12-25T11:27:07.504Z,100234.84
2022-12-25T11:29:48.549Z,100222.34
2022-12-25T11:32:36.219Z,100212.69
2022-12-25T11:35:05.009Z,100203.72
2022-12-25T11:37:43.199Z,100190.56
2022-12-25T11:40:26.517Z,100205.34
2022-12-25T11:43:07.689Z,100194.06
2022-12-25T11:45:46.530Z,100197.56
2022-12-25T11:48:15.059Z,100192.25
2022-12-25T11:51:03.666Z,100207.56
2022-12-25T11:53:45.279Z,100224.53
2022-12-25T11:56:23.259Z,100227.69
2022-12-25T11:59:02.728Z,100213.41
2022-12-25T12:02:15.146Z,100213.69
2022-12-25T12:04:45.547Z,100209.88
2022-12-25T12:07:31.995Z,100212.50
2022-12-25T12:10:19.660Z,100193.22
2022-12-25T12:12:53.923Z,100175.06
2022-12-25T12:15:31.845Z,100160.19
2022-12-25T12:18:27.170Z,100150.50
2022-12-25T12:21:17.840Z,100146.31
2022-12-25T12:24:17.100Z,100154.91
2022-12-25T12:26:47.632Z,100156.56
2022-12-25T12:29:30.244Z,100172.00
2022-12-25T12:32:21.416Z,100169.34
2022-12-25T12:34:50.737Z,100175.50
2022-12-25T12:37:24.979Z,100175.50
2022-12-25T12:39:56.144Z,100173.31
2022-12-25T12:42:29.178Z,100176.16
2022-12-25T12:45:11.716Z,100177.66
2022-12-25T12:47:43.804Z,100178.31
2022-12-25T12:50:42.235Z,100180.81
2022-12-25T12:53:25.267Z,100183.28
2022-12-25T12:55:53.842Z,100174.44
2022-12-25T12:58:51.042Z,100163.78
2022-12-25T13:01:49.773Z,100177.47
2022-12-25T13:05:06.030Z,100177.19
2022-12-25T13:08:02.246Z,100177.69
2022-12-25T13:10:38.103Z,100179.53
2022-12-25T13:13:25.600Z,100165.56
2022-12-25T13:15:56.075Z,100161.78
2022-12-25T13:18:24.241Z,100164.94
2022-12-25T13:21:03.622Z,100149.47
2022-12-25T13:23:35.941Z,100155.78
2022-12-25T13:26:12.076Z,100150.66
2022-12-25T13:28:40.569Z,100139.50
2022-12-25T13:31:25.625Z,100129.34
2022-12-25T13:34:31.930Z,100151.13
2022-12-25T13:37:27.556Z,100143.94
2022-12-25T13:40:02.901Z,100138.16
2022-12-25T13:42:33.769Z,100137.69
2022-12-25T13:45:08.509Z,100144.84
2022-12-25T13:47:51.450Z,100138.84
2022-12-25T13:50:31.072Z,100112.56
2022-12-25T13:53:13.349Z,100115.41
2022-12-25T13:55:43.132Z,100122.56
2022-12-25T13:58:29.814Z,100125.41
2022-12-25T14:01:04.220Z,100119.63
2022-12-25T14:03:43.714Z,100123.44
2022-12-25T14:06:27.301Z,100127.47
2022-12-25T14:08:59.988Z,100121.84
2022-12-25T14:11:30.878Z,100110.34
2022-12-25T14:14:09.372Z,100121.00
2022-12-25T14:16:37.682Z,100121.19
2022-12-25T14:19:30.210Z,100118.53
2022-12-25T14:22:26.574Z,100135.50
2022-12-25T14:24:55.091Z,100139.34
2022-12-25T14:27:30.345Z,100136.19
2022-12-25T14:30:01.015Z,100136.53
2022-12-25T14:32:32.962Z,100126.41
2022-12-25T14:35:03.644Z,100120.25
2022-12-25T14:37:34.162Z,100115.44
2022-12-25T14:40:22.706Z,100109.09
2022-12-25T14:43:06.772Z,100100.47
2022-12-25T14:45:39.756Z,100101.66
2022-12-25T14:48:27.968Z,100091.84
2022-12-25T14:51:05.787Z,100091.69
2022-12-25T14:53:49.043Z,100077.56
2022-12-25T14:56:25.933Z,100067.25
2022-12-25T14:58:57.357Z,100072.75
2022-12-25T15:01:38.975Z,100061.47
2022-12-25T15:04:15.435Z,100057.31
2022-12-25T15:07:07.400Z,100049.69
2022-12-25T15:09:37.843Z,100048.38
2022-12-25T15:12:06.602Z,100050.69
2022-12-25T15:14:38.417Z,100050.06
2022-12-25T15:17:06.788Z,100058.38
2022-12-25T15:19:39.152Z,100056.06
2022-12-25T15:22:07.945Z,100040.28
2022-12-25T15:24:36.493Z,100042.13
2022-12-25T15:27:05.517Z,100015.53
2022-12-25T15:32:25.230Z,100037.94
2022-12-25T15:34:54.196Z,100045.09
2022-12-25T15:37:22.617Z,100025.81
2022-12-25T15:39:51.299Z,100032.97
2022-12-25T15:42:25.280Z,100063.41
2022-12-25T15:44:54.471Z,100042.44
2022-12-25T15:47:23.156Z,100024.66
2022-12-25T15:49:51.463Z,100012.88
2022-12-25T15:52:20.061Z,100003.19
2022-12-25T15:54:48.562Z,100000.34
2022-12-25T15:57:23.568Z,99997.16
2022-12-25T15:59:52.073Z,99993.97
2022-12-25T16:02:21.911Z,99987.31
2022-12-25T16:04:51.225Z,99978.16
2022-12-25T16:07:25.880Z,99976.47
2022-12-25T16:09:54.449Z,99975.69
2022-12-25T16:12:22.863Z,99967.50
2022-12-25T16:14:51.089Z,99967.16
2022-12-25T16:17:19.637Z,99969.81
2022-12-25T16:19:48.048Z,99964.69
2022-12-25T16:22:26.666Z,99971.63
2022-12-25T16:24:55.123Z,99950.66
2022-12-25T16:27:23.788Z,99955.63
2022-12-25T16:29:52.459Z,99951.78
2022-12-25T16:32:20.795Z,99938.34
2022-12-25T16:34:50.400Z,99942.84
2022-12-25T16:37:19.004Z,99942.22
2022-12-25T16:39:47.493Z,99937.03
2022-12-25T16:42:16.055Z,99939.59
2022-12-25T16:44:44.876Z,99933.44
2022-12-25T16:47:13.018Z,99934.63
2022-12-25T16:49:41.311Z,99933.16
2022-12-25T16:52:09.334Z,99917.81
2022-12-25T16:54:37.866Z,99918.31
2022-12-25T16:57:06.407Z,99914.00
2022-12-25T16:59:35.859Z,99909.03
2022-12-25T17:02:04.589Z,99890.59
2022-12-25T17:04:33.186Z,99899.75
2022-12-25T17:07:01.810Z,99896.63
2022-12-25T17:09:29.923Z,99895.16
2022-12-25T17:11:58.585Z,99894.66
2022-12-25T17:14:27.050Z,99897.31
2022-12-25T17:16:55.210Z,99892.38
2022-12-25T17:19:24.908Z,99887.03
2022-12-25T17:21:54.771Z,99885.53
2022-12-25T17:24:23.685Z,99880.41
2022-12-25T17:26:52.255Z,99874.25
2022-12-25T17:29:22.714Z,99873.44
2022-12-25T17:31:52.254Z,99867.28
2022-12-25T17:34:20.915Z,99861.81
2022-12-25T17:36:49.686Z,99858.16
2022-12-25T17:39:19.278Z,99858.94
2022-12-25T17:41:47.946Z,99855.13
2022-12-25T17:44:16.482Z,99851.28
2022-12-25T17:46:45.022Z,99857.44
2022-12-25T17:49:20.671Z,99842.31
2022-12-25T17:51:49.634Z,99845.13
2022-12-25T17:54:18.078Z,99835.31
2022-12-25T17:56:46.596Z,99828.81
2022-12-25T17:59:18.514Z,99826.50
2022-12-25T18:01:49.218Z,99814.06
2022-12-25T18:04:17.899Z,99818.53
2022-12-25T18:06:51.567Z,99812.38
2022-12-25T18:09:19.940Z,99806.44
2022-12-25T18:11:48.128Z,99814.41
2022-12-25T18:14:18.330Z,99817.22
2022-12-25T18:16:46.905Z,99818.91
2022-12-25T18:19:17.756Z,99820.56
2022-12-25T18:21:46.188Z,99816.88
2022-12-25T18:24:14.618Z,99828.19
2022-12-25T18:26:43.431Z,99826.34
2022-12-25T18:29:12.110Z,99834.97
2022-12-25T18:31:40.335Z,99828.19
2022-12-25T18:34:08.359Z,99832.47
2022-12-25T18:36:37.004Z,99830.47
2022-12-25T18:39:18.629Z,99828.47
2022-12-25T18:42:03.006Z,99834.88
2022-12-25T18:44:31.462Z,99831.06
2022-12-25T18:47:03.655Z,99826.38
2022-12-25T18:49:32.152Z,99814.03
2022-12-25T18:52:47.612Z,99814.03
2022-12-25T18:54:49.316Z,99813.66
2022-12-25T18:57:17.983Z,99806.50
2022-12-25T18:59:46.971Z,99798.16
2022-12-25T19:02:16.811Z,99802.97
2022-12-25T19:04:45.303Z,99797.06
2022-12-25T19:07:13.790Z,99808.19
2022-12-25T19:09:42.248Z,99816.31
2022-12-25T19:12:10.760Z,99800.44
2022-12-25T19:14:47.190Z,99787.38
2022-12-25T19:17:17.559Z,99785.03
2022-12-25T19:19:46.278Z,99793.00
2022-12-25T19:22:14.793Z,99785.94
2022-12-25T19:24:43.268Z,99792.09
2022-12-25T19:27:11.877Z,99777.38
2022-12-25T19:29:40.354Z,99772.06
2022-12-25T19:32:08.814Z,99775.56
2022-12-25T19:34:37.346Z,99781.19
2022-12-25T19:37:06.060Z,99767.84
2022-12-25T19:39:34.472Z,99768.31
2022-12-25T19:42:02.921Z,99767.50
2022-12-25T19:44:31.395Z,99761.50
2022-12-25T19:46:59.842Z,99759.28
2022-12-25T19:49:28.227Z,99757.72
2022-12-25T19:51:56.803Z,99759.75
2022-12-25T19:54:25.201Z,99755.72
2022-12-25T19:56:54.145Z,99748.72
2022-12-25T19:59:22.773Z,99753.31
2022-12-25T20:01:51.534Z,99758.09
2022-12-25T20:04:20.111Z,99753.59
2022-12-25T20:06:48.578Z,99745.31
2022-12-25T20:09:21.568Z,99759.06
2022-12-25T20:11:50.842Z,99748.41
2022-12-25T20:14:19.664Z,99741.06
2022-12-25T20:16:48.275Z,99745.84
2022-12-25T20:19:16.858Z,99755.66
2022-12-25T20:21:45.795Z,99759.97
2022-12-25T20:24:14.225Z,99769.69
2022-12-25T20:26:47.503Z,99763.16
2022-12-25T20:29:15.911Z,99750.84
2022-12-25T20:31:44.361Z,99749.75
2022-12-25T20:34:12.881Z,99756.28
2022-12-25T20:36:41.373Z,99757.50
2022-12-25T20:39:10.461Z,99746.28
2022-12-25T20:41:39.806Z,99748.56
2022-12-25T20:44:10.588Z,99754.53
2022-12-25T20:46:39.396Z,99762.41
2022-12-25T20:49:14.835Z,99750.47
2022-12-25T20:51:43.583Z,99752.31
2022-12-25T20:54:14.858Z,99749.81
2022-12-25T20:56:43.034Z,99749.66
2022-12-25T20:59:12.296Z,99742.66
2022-12-25T21:01:40.856Z,99742.09
2022-12-25T21:04:14.434Z,99740.50
2022-12-25T21:06:44.246Z,99752.63
2022-12-25T21:09:12.731Z,99747.56
2022-12-25T21:11:41.238Z,99751.50
2022-12-25T21:14:29.571Z,99751.25
2022-12-25T21:16:57.727Z,99746.13
2022-12-25T21:19:26.187Z,99745.91
2022-12-25T21:21:54.785Z,99752.25
2022-12-25T21:24:23.223Z,99754.56
2022-12-25T21:26:51.678Z,99760.50
2022-12-25T21:29:24.344Z,99746.56
2022-12-25T21:32:11.568Z,99749.41
2022-12-25T21:34:39.839Z,99754.34
2022-12-25T21:37:08.384Z,99749.84
2022-12-25T21:39:36.800Z,99745.72
2022-12-25T21:42:05.640Z,99749.28
2022-12-25T21:44:34.063Z,99751.66
2022-12-25T21:47:02.539Z,99745.94
2022-12-25T21:49:48.264Z,99743.69
2022-12-25T21:52:16.739Z,99730.72
2022-12-25T21:54:45.363Z,99745.47
2022-12-25T21:57:14.035Z,99742.16
2022-12-25T21:59:42.064Z,99746.09
2022-12-25T22:02:12.173Z,99760.50
2022-12-25T22:04:46.486Z,99753.28
2022-12-25T22:07:20.155Z,99754.16
2022-12-25T22:09:50.848Z,99758.03
2022-12-25T22:12:39.288Z,99762.31
2022-12-25T22:15:09.986Z,99763.75
2022-12-25T22:17:58.919Z,99749.53
2022-12-25T22:20:34.531Z,99749.72
2022-12-25T22:23:02.913Z,99747.25
2022-12-25T22:25:31.470Z,99747.03
2022-12-25T22:27:59.807Z,99740.31
2022-12-25T22:30:30.391Z,99738.88
2022-12-25T22:32:59.199Z,99746.69
2022-12-25T22:35:27.451Z,99752.81
2022-12-25T22:37:56.068Z,99748.97
2022-12-25T22:40:24.577Z,99754.72
2022-12-25T22:42:56.078Z,99759.44
2022-12-25T22:45:25.144Z,99761.94
2022-12-25T22:47:53.653Z,99746.31
2022-12-25T22:50:22.179Z,99745.88
2022-12-25T22:52:50.640Z,99739.56
2022-12-25T22:55:20.317Z,99740.59
2022-12-25T22:57:49.355Z,99726.22
2022-12-25T23:00:17.997Z,99730.16
2022-12-25T23:02:46.606Z,99740.59
2022-12-25T23:05:15.135Z,99729.97
2022-12-25T23:07:43.674Z,99728.75
2022-12-25T23:10:12.175Z,99734.22
2022-12-25T23:12:57.928Z,99728.19
2022-12-25T23:15:27.579Z,99735.13
2022-12-25T23:18:13.557Z,99731.94
2022-12-25T23:20:59.275Z,99724.09
2022-12-25T23:23:44.448Z,99735.31
2022-12-25T23:26:15.032Z,99724.84
2022-12-25T23:29:02.188Z,99713.53
2022-12-25T23:31:35.599Z,99715.19
2022-12-25T23:34:04.854Z,99716.13
2022-12-25T23:36:34.054Z,99726.78
2022-12-25T23:39:09.018Z,99743.44
2022-12-25T23:41:41.485Z,99742.34
2022-12-25T23:44:11.757Z,99730.06
2022-12-25T23:46:41.274Z,99728.78
2022-12-25T23:49:22.320Z,99727.69
2022-12-25T23:51:51.011Z,99725.75
2022-12-25T23:54:22.956Z,99728.81
2022-12-25T23:56:51.350Z,99720.56
2022-12-25T23:59:20.066Z,99715.03
